createdAt,value
2018-06-12T00:00:22.950Z,95437.66
2018-06-12T00:02:53.594Z,95432.59
2018-06-12T00:05:23.960Z,95430.44
2018-06-12T00:07:53.710Z,95428.88
2018-06-12T00:10:23.625Z,95427.93
2018-06-12T00:12:53.386Z,95431.39
2018-06-12T00:15:23.215Z,95424.33
2018-06-12T00:17:53.131Z,95415.27
2018-06-12T00:20:23.289Z,95418.58
2018-06-12T00:22:53.129Z,95418.15
2018-06-12T00:25:22.926Z,95415.53
2018-06-12T00:27:52.852Z,95419.37
2018-06-12T00:30:22.664Z,95418.58
2018-06-12T00:32:52.606Z,95422.12
2018-06-12T00:35:23.358Z,95424.89
2018-06-12T00:37:53.396Z,95428.39
2018-06-12T00:40:23.294Z,95418.74
2018-06-12T00:42:53.372Z,95416.16
2018-06-12T00:45:23.806Z,95420.77
2018-06-12T00:47:53.706Z,95411.55
2018-06-12T00:50:23.482Z,95422.15
2018-06-12T00:52:53.352Z,95435.73
2018-06-12T00:55:23.538Z,95435.08
2018-06-12T00:57:53.470Z,95430.97
2018-06-12T01:00:23.886Z,95431.59
2018-06-12T01:02:54.385Z,95432.99
2018-06-12T01:05:24.292Z,95441.84
2018-06-12T01:07:54.114Z,95441.08
2018-06-12T01:10:23.890Z,95451.59
2018-06-12T01:12:53.689Z,95452.01
2018-06-12T01:15:24.072Z,95456.61
2018-06-12T01:17:53.954Z,95452.59
2018-06-12T01:20:24.421Z,95448.14
2018-06-12T01:22:55.186Z,95446.98
2018-06-12T01:25:25.015Z,95457.91
2018-06-12T01:27:55.088Z,95463.80
2018-06-12T01:30:24.526Z,95464.22
2018-06-12T01:32:54.658Z,95464.72
2018-06-12T01:35:24.810Z,95478.45
2018-06-12T01:37:54.788Z,95469.53
2018-06-12T01:40:24.727Z,95471.08
2018-06-12T01:42:54.812Z,95471.69
2018-06-12T01:45:24.597Z,95472.24
2018-06-12T01:47:54.399Z,95467.45
2018-06-12T01:50:24.372Z,95462.86
2018-06-12T01:52:55.864Z,95453.88
2018-06-12T01:55:25.709Z,95450.41
2018-06-12T01:57:55.548Z,95442.45
2018-06-12T02:00:25.633Z,95436.81
2018-06-12T02:02:55.473Z,95437.00
2018-06-12T02:05:25.298Z,95429.24
2018-06-12T02:07:55.192Z,95430.86
2018-06-12T02:10:25.865Z,95431.86
2018-06-12T02:12:55.683Z,95424.15
2018-06-12T02:15:25.515Z,95425.81
2018-06-12T02:17:55.359Z,95417.61
2018-06-12T02:20:25.259Z,95421.17
2018-06-12T02:22:56.851Z,95427.85
2018-06-12T02:27:57.517Z,95435.23
2018-06-12T02:30:27.340Z,95432.90
2018-06-12T02:32:58.009Z,95415.56
2018-06-12T02:35:27.839Z,95420.46
2018-06-12T02:37:57.660Z,95421.19
2018-06-12T02:40:27.470Z,95423.55
2018-06-12T02:42:57.342Z,95422.98
2018-06-12T02:45:27.193Z,95425.03
2018-06-12T02:47:57.373Z,95418.19
2018-06-12T02:50:27.259Z,95413.01
2018-06-12T02:52:57.139Z,95419.09
2018-06-12T02:55:27.018Z,95421.69
2018-06-12T02:57:56.976Z,95413.29
2018-06-12T03:00:26.774Z,95416.05
2018-06-12T03:02:56.791Z,95407.95
2018-06-12T03:05:26.599Z,95409.17
2018-06-12T03:07:56.434Z,95412.45
2018-06-12T03:10:26.315Z,95411.52
2018-06-12T03:12:56.487Z,95407.38
2018-06-12T03:15:26.294Z,95416.89
2018-06-12T03:17:56.130Z,95415.47
2018-06-12T03:20:42.690Z,95407.66
2018-06-12T03:23:12.686Z,95414.08
2018-06-12T03:25:42.646Z,95410.53
2018-06-12T03:28:12.610Z,95412.67
2018-06-12T03:30:42.438Z,95406.70
2018-06-12T03:33:11.894Z,95411.62
2018-06-12T03:35:41.692Z,95405.02
2018-06-12T03:38:11.698Z,95403.64
2018-06-12T03:40:41.619Z,95395.67
2018-06-12T03:43:11.549Z,95401.67
2018-06-12T03:45:41.702Z,95397.53
2018-06-12T03:48:11.557Z,95392.92
2018-06-12T03:50:41.439Z,95390.32
2018-06-12T03:53:11.533Z,95399.22
2018-06-12T03:55:41.317Z,95387.47
2018-06-12T03:58:11.161Z,95393.45
2018-06-12T04:00:41.039Z,95382.42
2018-06-12T04:03:10.842Z,95384.58
2018-06-12T04:05:41.507Z,95380.92
2018-06-12T04:08:11.631Z,95380.02
2018-06-12T04:10:41.465Z,95374.41
2018-06-12T04:13:11.361Z,95376.00
2018-06-12T04:15:41.245Z,95373.85
2018-06-12T04:18:11.115Z,95372.05
2018-06-12T04:20:41.199Z,95363.59
2018-06-12T04:23:11.021Z,95369.59
2018-06-12T04:25:41.063Z,95372.39
2018-06-12T04:28:10.950Z,95370.17
2018-06-12T04:30:40.739Z,95369.33
2018-06-12T04:33:10.541Z,95368.48
2018-06-12T04:35:40.446Z,95367.87
2018-06-12T04:38:10.266Z,95373.70
2018-06-12T04:40:41.249Z,95366.63
2018-06-12T04:43:11.283Z,95371.24
2018-06-12T04:45:41.085Z,95374.74
2018-06-12T04:48:10.911Z,95371.68
2018-06-12T04:50:40.727Z,95377.34
2018-06-12T04:53:10.787Z,95376.42
2018-06-12T04:55:40.911Z,95375.58
2018-06-12T04:58:10.699Z,95376.78
2018-06-12T05:00:40.599Z,95380.57
2018-06-12T05:03:10.691Z,95383.48
2018-06-12T05:05:40.527Z,95379.80
2018-06-12T05:08:10.540Z,95381.98
2018-06-12T05:10:40.730Z,95381.83
2018-06-12T05:13:10.756Z,95380.92
2018-06-12T05:15:41.155Z,95381.10
2018-06-12T05:18:11.277Z,95382.01
2018-06-12T05:20:41.451Z,95385.88
2018-06-12T05:23:11.253Z,95385.54
2018-06-12T05:25:41.137Z,95384.64
2018-06-12T05:28:11.145Z,95383.55
2018-06-12T05:30:40.995Z,95392.04
2018-06-12T05:33:10.741Z,95399.11
2018-06-12T05:35:40.539Z,95404.48
2018-06-12T05:38:10.351Z,95409.23
2018-06-12T05:40:40.210Z,95409.10
2018-06-12T05:43:10.049Z,95416.73
2018-06-12T05:45:39.949Z,95417.52
2018-06-12T05:48:09.733Z,95416.36
2018-06-12T05:50:39.519Z,95420.28
2018-06-12T05:53:09.588Z,95417.52
2018-06-12T05:55:39.542Z,95415.36
2018-06-12T05:58:09.553Z,95416.91
2018-06-12T06:00:39.679Z,95423.81
2018-06-12T06:03:09.722Z,95430.53
2018-06-12T06:05:39.499Z,95425.52
2018-06-12T06:08:09.356Z,95432.12
2018-06-12T06:10:39.307Z,95436.39
2018-06-12T06:13:09.550Z,95436.88
2018-06-12T06:15:39.336Z,95437.17
2018-06-12T06:18:09.100Z,95436.84
2018-06-12T06:20:38.521Z,95437.43
2018-06-12T06:23:07.906Z,95442.34
2018-06-12T06:25:37.728Z,95441.45
2018-06-12T06:28:07.508Z,95444.97
2018-06-12T06:30:37.719Z,95446.96
2018-06-12T06:33:07.464Z,95449.16
2018-06-12T06:35:37.242Z,95443.65
2018-06-12T06:38:07.000Z,95454.42
2018-06-12T06:40:36.832Z,95457.37
2018-06-12T06:43:06.627Z,95448.31
2018-06-12T06:45:36.676Z,95451.05
2018-06-12T06:48:06.590Z,95452.29
2018-06-12T06:50:36.336Z,95456.63
2018-06-12T06:53:06.092Z,95451.75
2018-06-12T06:55:36.390Z,95450.64
2018-06-12T06:58:06.506Z,95447.10
2018-06-12T07:00:36.810Z,95450.36
2018-06-12T07:03:06.690Z,95445.29
2018-06-12T07:05:37.071Z,95443.75
2018-06-12T07:08:07.413Z,95446.36
2018-06-12T07:10:37.141Z,95443.00
2018-06-12T07:13:06.925Z,95438.70
2018-06-12T07:15:37.274Z,95441.15
2018-06-12T07:18:08.368Z,95444.52
2018-06-12T07:21:21.553Z,95443.84
2018-06-12T07:23:52.613Z,95435.53
2018-06-12T07:26:23.777Z,95437.70
2018-06-12T07:28:54.856Z,95430.48
2018-06-12T07:31:26.027Z,95435.28
2018-06-12T07:33:57.171Z,95432.04
2018-06-12T07:36:28.391Z,95429.59
2018-06-12T07:38:59.564Z,95425.14
2018-06-12T07:41:30.746Z,95423.92
2018-06-12T07:44:01.188Z,95423.25
2018-06-12T07:46:32.315Z,95419.67
2018-06-12T07:49:03.291Z,95428.72
2018-06-12T07:51:34.300Z,95429.28
2018-06-12T07:54:05.343Z,95429.70
2018-06-12T07:56:36.418Z,95430.70
2018-06-12T07:59:07.602Z,95431.61
2018-06-12T08:01:38.636Z,95435.20
2018-06-12T08:04:09.654Z,95432.02
2018-06-12T08:06:40.655Z,95430.67
2018-06-12T08:09:11.630Z,95430.86
2018-06-12T08:11:42.722Z,95428.70
2018-06-12T08:14:13.948Z,95428.87
2018-06-12T08:16:45.051Z,95428.83
2018-06-12T08:19:16.277Z,95433.33
2018-06-12T08:21:47.445Z,95427.06
2018-06-12T08:24:18.625Z,95434.46
2018-06-12T08:26:49.728Z,95430.48
2018-06-12T08:29:21.703Z,95434.44
2018-06-12T08:31:52.833Z,95423.98
2018-06-12T08:34:23.907Z,95428.83
2018-06-12T08:36:54.955Z,95421.59
2018-06-12T08:39:26.047Z,95430.38
2018-06-12T08:41:57.223Z,95422.06
2018-06-12T08:44:28.321Z,95421.64
2018-06-12T08:46:59.425Z,95421.60
2018-06-12T08:49:30.621Z,95422.82
2018-06-12T08:52:01.844Z,95424.64
2018-06-12T08:54:33.081Z,95418.55
2018-06-12T08:57:04.126Z,95427.05
2018-06-12T08:59:35.188Z,95418.55
2018-06-12T09:02:07.077Z,95423.04
2018-06-12T09:04:38.245Z,95425.69
2018-06-12T09:07:09.356Z,95425.44
2018-06-12T09:09:40.693Z,95425.47
2018-06-12T09:12:12.087Z,95429.66
2018-06-12T09:14:44.007Z,95425.52
2018-06-12T09:17:15.233Z,95423.61
2018-06-12T09:19:45.802Z,95427.55
2018-06-12T09:22:16.825Z,95421.48
2018-06-12T09:24:47.418Z,95420.11
2018-06-12T09:27:18.615Z,95418.44
2018-06-12T09:29:49.740Z,95416.73
2018-06-12T09:32:20.806Z,95414.59
2018-06-12T09:34:51.808Z,95421.63
2018-06-12T09:37:22.871Z,95424.84
2018-06-12T09:39:53.419Z,95421.64
2018-06-12T09:42:24.542Z,95431.19
2018-06-12T09:44:55.089Z,95428.77
2018-06-12T09:47:26.172Z,95426.23
2018-06-12T09:49:57.264Z,95430.70
2018-06-12T09:52:27.750Z,95437.91
2018-06-12T09:54:58.905Z,95430.66
2018-06-12T09:57:30.020Z,95437.05
2018-06-12T10:00:01.203Z,95435.00
2018-06-12T10:02:32.349Z,95431.14
2018-06-12T10:05:03.467Z,95427.44
2018-06-12T10:07:34.529Z,95431.00
2018-06-12T10:10:05.725Z,95425.61
2018-06-12T10:12:36.813Z,95426.23
2018-06-12T10:15:08.037Z,95423.33
2018-06-12T10:17:39.339Z,95427.22
2018-06-12T10:20:10.504Z,95421.16
2018-06-12T10:22:41.559Z,95424.86
2018-06-12T10:25:12.729Z,95422.20
2018-06-12T10:27:44.042Z,95421.33
2018-06-12T10:30:15.155Z,95423.03
2018-06-12T10:32:46.282Z,95421.38
2018-06-12T10:35:17.413Z,95422.20
2018-06-12T10:37:48.555Z,95422.48
2018-06-12T10:40:19.740Z,95415.39
2018-06-12T10:42:51.043Z,95418.09
2018-06-12T10:45:22.119Z,95419.97
2018-06-12T10:47:53.307Z,95416.89
2018-06-12T10:50:24.417Z,95408.67
2018-06-12T10:52:55.649Z,95415.34
2018-06-12T10:55:26.157Z,95406.24
2018-06-12T10:57:57.267Z,95404.77
2018-06-12T11:00:28.409Z,95403.53
2018-06-12T11:02:59.537Z,95406.06
2018-06-12T11:05:30.705Z,95402.99
2018-06-12T11:08:01.895Z,95400.73
2018-06-12T11:10:33.003Z,95400.98
2018-06-12T11:13:04.311Z,95405.71
2018-06-12T11:15:35.366Z,95407.72
2018-06-12T11:18:07.496Z,95403.17
2018-06-12T11:20:38.664Z,95398.55
2018-06-12T11:23:09.843Z,95396.30
2018-06-12T11:25:42.101Z,95389.63
2018-06-12T11:28:13.165Z,95397.70
2018-06-12T11:30:44.299Z,95397.70
2018-06-12T11:33:15.479Z,95395.42
2018-06-12T11:35:46.541Z,95394.83
2018-06-12T11:38:17.691Z,95388.53
2018-06-12T11:40:48.855Z,95390.37
2018-06-12T11:43:19.895Z,95395.19
2018-06-12T11:45:50.977Z,95386.78
2018-06-12T11:48:22.156Z,95397.92
2018-06-12T11:50:53.302Z,95395.33
2018-06-12T11:53:24.333Z,95392.80
2018-06-12T11:55:54.870Z,95393.61
2018-06-12T11:58:25.963Z,95388.48
2018-06-12T12:00:57.079Z,95380.72
2018-06-12T12:03:28.126Z,95385.21
2018-06-12T12:05:59.301Z,95385.14
2018-06-12T12:08:31.207Z,95382.36
2018-06-12T12:11:02.252Z,95386.74
2018-06-12T12:13:33.419Z,95381.87
2018-06-12T12:16:05.035Z,95384.91
2018-06-12T12:18:35.944Z,95374.87
2018-06-12T12:21:06.974Z,95374.84
2018-06-12T12:23:38.118Z,95380.56
2018-06-12T12:26:09.249Z,95373.64
2018-06-12T12:28:40.400Z,95381.86
2018-06-12T12:31:11.642Z,95379.98
2018-06-12T12:33:42.733Z,95379.58
2018-06-12T12:36:13.772Z,95372.94
2018-06-12T12:38:44.886Z,95372.80
2018-06-12T12:41:16.001Z,95367.59
2018-06-12T12:43:47.125Z,95366.09
2018-06-12T12:46:18.176Z,95366.30
2018-06-12T12:48:49.229Z,95360.43
2018-06-12T12:51:20.445Z,95354.66
2018-06-12T12:53:52.183Z,95356.13
2018-06-12T12:56:23.405Z,95355.80
2018-06-12T12:58:54.529Z,95355.55
2018-06-12T13:01:24.841Z,95365.44
2018-06-12T13:03:55.509Z,95355.83
2018-06-12T13:06:25.845Z,95361.32
2018-06-12T13:08:56.217Z,95360.39
2018-06-12T13:11:26.554Z,95356.10
2018-06-12T13:15:26.249Z,95359.84
2018-06-12T13:17:56.631Z,95353.86
2018-06-12T13:20:27.029Z,95349.41
2018-06-12T13:22:57.423Z,95349.88
2018-06-12T13:25:27.786Z,95348.09
2018-06-12T13:27:58.110Z,95355.45
2018-06-12T13:30:28.460Z,95352.30
2018-06-12T13:32:58.852Z,95346.61
2018-06-12T13:35:30.068Z,95346.91
2018-06-12T13:38:00.390Z,95341.70
2018-06-12T13:40:30.742Z,95340.84
2018-06-12T13:43:01.121Z,95338.20
2018-06-12T13:45:31.481Z,95340.53
2018-06-12T13:48:01.410Z,95334.39
2018-06-12T13:50:31.712Z,95343.45
2018-06-12T13:53:01.682Z,95342.91
2018-06-12T13:55:32.166Z,95339.00
2018-06-12T13:58:02.230Z,95337.36
2018-06-12T14:00:32.602Z,95334.97
2018-06-12T14:03:02.610Z,95337.59
2018-06-12T14:05:33.004Z,95325.69
2018-06-12T14:08:03.346Z,95338.30
2018-06-12T14:10:33.697Z,95333.22
2018-06-12T14:13:04.020Z,95331.67
2018-06-12T14:15:34.364Z,95329.00
2018-06-12T14:18:05.640Z,95325.40
2018-06-12T14:20:36.004Z,95319.17
2018-06-12T14:23:06.379Z,95320.94
2018-06-12T14:25:36.732Z,95320.13
2018-06-12T14:28:07.680Z,95320.98
2018-06-12T14:30:38.238Z,95321.97
2018-06-12T14:33:08.722Z,95316.94
2018-06-12T14:35:39.158Z,95312.87
2018-06-12T14:38:09.583Z,95316.09
2018-06-12T14:40:40.000Z,95314.33
2018-06-12T14:43:10.472Z,95312.66
2018-06-12T14:45:41.198Z,95307.59
2018-06-12T14:48:11.579Z,95310.03
2018-06-12T14:50:41.982Z,95297.06
2018-06-12T14:53:12.399Z,95296.63
2018-06-12T14:55:42.886Z,95300.66
2018-06-12T14:58:13.327Z,95299.13
2018-06-12T15:00:43.766Z,95298.16
2018-06-12T15:03:14.122Z,95295.37
2018-06-12T15:05:44.520Z,95293.77
2018-06-12T15:08:14.946Z,95289.69
2018-06-12T15:10:45.340Z,95288.20
2018-06-12T15:13:16.337Z,95287.08
2018-06-12T15:15:46.662Z,95280.06
2018-06-12T15:18:17.480Z,95285.22
2018-06-12T15:20:47.852Z,95275.42
2018-06-12T15:23:18.510Z,95276.63
2018-06-12T15:25:49.174Z,95275.79
2018-06-12T15:28:19.702Z,95275.28
2018-06-12T15:30:50.077Z,95277.10
2018-06-12T15:33:20.692Z,95273.48
2018-06-12T15:35:51.303Z,95269.66
2018-06-12T15:38:21.724Z,95278.69
2018-06-12T15:40:52.072Z,95272.24
2018-06-12T15:43:22.426Z,95270.09
2018-06-12T15:45:52.804Z,95268.48
2018-06-12T15:48:23.209Z,95265.31
2018-06-12T15:50:53.544Z,95266.59
2018-06-12T15:53:23.924Z,95269.38
2018-06-12T15:55:54.618Z,95267.56
2018-06-12T15:58:24.984Z,95267.25
2018-06-12T16:00:55.422Z,95263.22
2018-06-12T16:03:26.062Z,95262.38
2018-06-12T16:05:56.460Z,95261.33
2018-06-12T16:08:26.853Z,95260.81
2018-06-12T16:10:57.168Z,95259.42
2018-06-12T16:13:27.582Z,95255.44
2018-06-12T16:15:57.942Z,95255.20
2018-06-12T16:18:28.331Z,95253.11
2018-06-12T16:20:58.767Z,95250.84
2018-06-12T16:23:29.181Z,95249.30
2018-06-12T16:25:59.710Z,95255.61
2018-06-12T16:28:30.216Z,95265.51
2018-06-12T16:31:01.008Z,95264.12
2018-06-12T16:33:31.404Z,95266.93
2018-06-12T16:36:02.518Z,95268.99
2018-06-12T16:38:33.128Z,95269.09
2018-06-12T16:41:03.734Z,95280.58
2018-06-12T16:43:33.781Z,95275.63
2018-06-12T16:46:04.141Z,95282.62
2018-06-12T16:48:34.530Z,95271.61
2018-06-12T16:51:04.898Z,95276.03
2018-06-12T16:53:35.357Z,95276.16
2018-06-12T16:56:05.812Z,95276.53
2018-06-12T16:58:36.245Z,95275.26
2018-06-12T17:01:06.879Z,95277.30
2018-06-12T17:03:37.372Z,95280.30
2018-06-12T17:06:07.670Z,95281.55
2018-06-12T17:08:38.536Z,95282.16
2018-06-12T17:11:08.935Z,95286.33
2018-06-12T17:13:40.043Z,95284.98
2018-06-12T17:16:10.250Z,95285.21
2018-06-12T17:18:40.665Z,95292.82
2018-06-12T17:21:11.734Z,95290.77
2018-06-12T17:23:42.140Z,95286.18
2018-06-12T17:26:12.526Z,95287.89
2018-06-12T17:28:43.196Z,95281.37
2018-06-12T17:31:13.795Z,95285.13
2018-06-12T17:33:44.248Z,95290.45
2018-06-12T17:36:14.620Z,95292.09
2018-06-12T17:38:45.200Z,95287.66
2018-06-12T17:41:15.928Z,95291.97
2018-06-12T17:43:46.338Z,95290.55
2018-06-12T17:46:16.697Z,95295.44
2018-06-12T17:48:47.370Z,95307.17
2018-06-12T17:51:17.728Z,95311.48
2018-06-12T17:53:48.193Z,95320.40
2018-06-12T17:56:18.582Z,95323.00
2018-06-12T17:58:48.988Z,95336.52
2018-06-12T18:01:19.918Z,95327.44
2018-06-12T18:03:50.324Z,95331.52
2018-06-12T18:06:20.202Z,95318.84
2018-06-12T18:08:50.092Z,95328.63
2018-06-12T18:11:19.907Z,95331.31
2018-06-12T18:13:50.044Z,95330.02
2018-06-12T18:16:19.826Z,95335.87
2018-06-12T18:18:50.342Z,95332.06
2018-06-12T18:21:20.236Z,95332.45
2018-06-12T18:23:50.078Z,95337.91
2018-06-12T18:26:20.311Z,95336.86
2018-06-12T18:28:50.208Z,95343.52
2018-06-12T18:31:20.668Z,95343.41
2018-06-12T18:33:50.432Z,95341.05
2018-06-12T18:36:20.616Z,95344.85
2018-06-12T18:38:50.444Z,95350.20
2018-06-12T18:41:20.180Z,95347.07
2018-06-12T18:43:50.088Z,95346.97
2018-06-12T18:46:20.014Z,95344.04
2018-06-12T18:48:49.442Z,95352.72
2018-06-12T18:51:19.247Z,95344.53
2018-06-12T18:53:49.203Z,95347.88
2018-06-12T18:56:18.986Z,95345.17
2018-06-12T18:58:48.761Z,95337.83
2018-06-12T19:01:18.597Z,95336.04
2018-06-12T19:03:48.976Z,95336.53
2018-06-12T19:06:19.076Z,95338.23
2018-06-12T19:08:48.947Z,95333.92
2018-06-12T19:11:18.823Z,95337.83
2018-06-12T19:13:48.869Z,95338.66
2018-06-12T19:16:18.761Z,95335.14
2018-06-12T19:18:48.655Z,95333.77
2018-06-12T19:21:18.551Z,95340.23
2018-06-12T19:23:48.429Z,95344.21
2018-06-12T19:26:18.377Z,95332.61
2018-06-12T19:28:48.175Z,95339.88
2018-06-12T19:31:17.645Z,95342.68
2018-06-12T19:33:47.793Z,95342.70
2018-06-12T19:36:18.437Z,95347.00
2018-06-12T19:38:48.369Z,95343.53
2018-06-12T19:41:18.435Z,95352.77
2018-06-12T19:43:48.338Z,95351.01
2018-06-12T19:46:18.236Z,95352.22
2018-06-12T19:48:48.470Z,95350.52
2018-06-12T19:51:18.455Z,95358.52
2018-06-12T19:53:48.329Z,95357.17
2018-06-12T19:56:18.465Z,95361.87
2018-06-12T19:58:48.407Z,95359.45
2018-06-12T20:01:18.183Z,95358.08
2018-06-12T20:03:47.971Z,95359.03
2018-06-12T20:06:17.922Z,95370.86
2018-06-12T20:08:47.841Z,95379.19
2018-06-12T20:11:17.641Z,95376.66
2018-06-12T20:13:47.147Z,95377.09
2018-06-12T20:16:16.998Z,95374.67
2018-06-12T20:18:46.835Z,95374.49
2018-06-12T20:21:16.661Z,95376.48
2018-06-12T20:23:46.541Z,95377.22
2018-06-12T20:26:16.439Z,95374.50
2018-06-12T20:28:46.513Z,95369.94
2018-06-12T20:31:16.441Z,95364.70
2018-06-12T20:33:46.401Z,95364.41
2018-06-12T20:36:16.519Z,95365.09
2018-06-12T20:38:46.736Z,95358.10
2018-06-12T20:41:16.571Z,95363.38
2018-06-12T20:43:46.575Z,95361.68
2018-06-12T20:46:16.371Z,95355.56
2018-06-12T20:48:46.263Z,95349.02
2018-06-12T20:51:16.738Z,95349.03
2018-06-12T20:53:46.523Z,95353.17
2018-06-12T20:56:17.048Z,95350.14
2018-06-12T20:58:46.979Z,95351.91
2018-06-12T21:01:16.767Z,95351.17
2018-06-12T21:03:46.571Z,95348.09
2018-06-12T21:06:16.068Z,95344.70
2018-06-12T21:08:46.085Z,95348.38
2018-06-12T21:11:16.177Z,95347.95
2018-06-12T21:13:46.001Z,95347.17
2018-06-12T21:16:15.881Z,95343.95
2018-06-12T21:18:45.695Z,95343.33
2018-06-12T21:21:16.031Z,95347.64
2018-06-12T21:23:45.825Z,95348.26
2018-06-12T21:26:15.629Z,95347.15
2018-06-12T21:28:45.535Z,95344.94
2018-06-12T21:31:16.271Z,95347.77
2018-06-12T21:33:46.053Z,95348.69
2018-06-12T21:36:16.229Z,95352.77
2018-06-12T21:38:46.323Z,95355.08
2018-06-12T21:41:16.145Z,95357.30
2018-06-12T21:43:45.945Z,95355.80
2018-06-12T21:46:15.908Z,95355.33
2018-06-12T21:48:45.797Z,95351.91
2018-06-12T21:51:15.631Z,95355.87
2018-06-12T21:53:46.371Z,95360.25
2018-06-12T21:56:16.321Z,95360.39
2018-06-12T21:58:46.169Z,95361.27
2018-06-12T22:01:16.426Z,95359.30
2018-06-12T22:03:46.593Z,95358.17
2018-06-12T22:06:16.436Z,95357.44
2018-06-12T22:08:46.558Z,95348.09
2018-06-12T22:11:16.344Z,95349.24
2018-06-12T22:13:46.534Z,95342.66
2018-06-12T22:16:23.530Z,95340.08
2018-06-12T22:18:53.888Z,95340.11
2018-06-12T22:21:23.682Z,95338.75
2018-06-12T22:23:54.029Z,95343.22
2018-06-12T22:26:58.450Z,95345.05
2018-06-12T22:29:28.280Z,95343.98
2018-06-12T22:31:58.717Z,95334.09
2018-06-12T22:34:28.976Z,95335.19
2018-06-12T22:36:58.880Z,95330.36
2018-06-12T22:39:29.299Z,95336.78
2018-06-12T22:41:59.285Z,95334.76
2018-06-12T22:44:29.543Z,95333.25
2018-06-12T22:46:59.358Z,95331.18
2018-06-12T22:49:29.226Z,95338.41
2018-06-12T22:51:59.182Z,95339.89
2018-06-12T22:54:29.110Z,95338.63
2018-06-12T22:56:59.549Z,95340.98
2018-06-12T22:59:29.416Z,95339.55
2018-06-12T23:01:59.418Z,95340.00
2018-06-12T23:04:29.244Z,95342.38
2018-06-12T23:06:59.028Z,95345.05
2018-06-12T23:09:28.895Z,95348.11
2018-06-12T23:11:58.732Z,95340.88
2018-06-12T23:14:28.659Z,95345.11
2018-06-12T23:16:58.456Z,95344.60
2018-06-12T23:19:28.342Z,95346.50
2018-06-12T23:22:01.510Z,95350.02
2018-06-12T23:24:31.241Z,95338.32
2018-06-12T23:27:00.984Z,95333.39
2018-06-12T23:29:30.674Z,95335.77
2018-06-12T23:32:00.484Z,95336.32
2018-06-12T23:34:30.273Z,95339.63
2018-06-12T23:37:00.009Z,95334.58
2018-06-12T23:39:29.764Z,95328.42
2018-06-12T23:41:59.674Z,95327.45
2018-06-12T23:44:29.411Z,95321.89
2018-06-12T23:46:59.127Z,95319.95
2018-06-12T23:49:28.895Z,95316.51
2018-06-12T23:51:58.640Z,95319.75
2018-06-12T23:54:28.359Z,95318.64
2018-06-12T23:56:58.126Z,95316.84
2018-06-12T23:59:27.821Z,95309.50
